Rona II — MPKR2 — position and weather

sailwx.info

Track history (hours):
 
Tides and Currents Weather Stations Pressure Air Temp Water Temp Dewpoint Dewpoint Depression Visibility Wind Speed Wind Dir Waves Ship Positions

Rona II

Last reported at 2015-Jul-23 19:31 UTC. Time now 2015-Jul-29 06:53 UTC.
Position N 58°25' E 005°55'.

Length 22 m.

Type: Sailing vessel. MMSI: 232714000.

Date/timePositionNaut miles runAvg speedWind from/ knotsBaromVisibWave heightAir tempDewpointWater temp
2015-Jul-23 19:31N 58°25' E 005°55'43 2.0
2015-Jul-22 22:08N 59°03' E 005°18'4 5.5
2015-Jul-22 21:28N 59°07' E 005°19'12 6.2
2015-Jul-22 19:32N 59°19' E 005°20'22 5.5
2015-Jul-22 15:28N 59°41' E 005°25'3 3.1
2015-Jul-22 14:31N 59°43' E 005°29'4 3.6
2015-Jul-22 13:32N 59°47' E 005°31'1 0.6
2015-Jul-22 12:33N 59°47' E 005°30'0 0.1
2015-Jul-22 11:32N 59°47' E 005°30'  
Track history (hours):
 
Tides and Currents Weather Stations Pressure Air Temp Water Temp Dewpoint Dewpoint Depression Visibility Wind Speed Wind Dir Waves Ship Positions

Rona II

Last reported at 2015-Jul-23 19:31 UTC. Time now 2015-Jul-29 06:53 UTC.
Position N 58°25' E 005°55'.

Length 22 m.

Type: Sailing vessel. MMSI: 232714000.

Date/timePositionNaut miles runAvg speedWind from/ knotsBaromVisibWave heightAir tempDewpointWater temp
2015-Jul-23 19:31N 58°25' E 005°55'43 2.0
2015-Jul-22 22:08N 59°03' E 005°18'4 5.5
2015-Jul-22 21:28N 59°07' E 005°19'12 6.2
2015-Jul-22 19:32N 59°19' E 005°20'22 5.5
2015-Jul-22 15:28N 59°41' E 005°25'3 3.1
2015-Jul-22 14:31N 59°43' E 005°29'4 3.6
2015-Jul-22 13:32N 59°47' E 005°31'1 0.6
2015-Jul-22 12:33N 59°47' E 005°30'0 0.1
2015-Jul-22 11:32N 59°47' E 005°30'  

Dump ship's entire track history